Time;durP1;ratioP1;P1;durP2;ratioP2;P2;SDS_P1;SDS_P2;PMS_P1;PMS_P2;Temp;Humidity;BMP_temperature;BMP_pressure;BME280_temperature;BME280_humidity;BME280_pressure;Samples;Min_cycle;Max_cycle;Signal;HPM_P1;HPM_P2
2022/04/15 00:00:27;;;;;;;;;;;8.60;99.90;;;;;;5069721;28;19925;-81
2022/04/15 00:02:54;;;;;;;;;;;8.60;99.90;;;;;;5070040;28;19925;-80
2022/04/15 00:05:36;;;;;;;;;;;8.60;99.90;;;;;;5064143;28;19932;-81
2022/04/15 00:08:03;;;;;;;;;;;8.60;99.90;;;;;;5064329;28;19928;-81
2022/04/15 00:10:29;;;;;;;;;;;8.70;99.90;;;;;;5071593;28;19936;-81
2022/04/15 00:12:56;;;;;;;;;;;8.90;99.90;;;;;;5069971;28;19921;-81
2022/04/15 00:15:22;;;;;;;;;;;8.80;99.90;;;;;;5071783;28;19935;-80
2022/04/15 00:17:49;;;;;;;;;;;8.80;99.90;;;;;;5071311;28;19947;-82
2022/04/15 00:20:15;;;;;;;;;;;8.80;99.90;;;;;;5072818;28;19925;-80
2022/04/15 00:22:42;;;;;;;;;;;8.70;99.90;;;;;;5068984;28;19928;-82
2022/04/15 00:25:10;;;;;;;;;;;8.70;99.90;;;;;;5075117;28;19925;-82
2022/04/15 00:27:36;;;;;;;;;;;8.70;99.90;;;;;;5071365;28;20283;-87
2022/04/15 00:30:03;;;;;;;;;;;8.60;99.90;;;;;;5071087;28;19929;-86
2022/04/15 00:32:29;;;;;;;;;;;8.70;99.90;;;;;;5069616;28;19928;-82
2022/04/15 00:34:56;;;;;;;;;;;8.60;99.90;;;;;;5069791;28;19931;-82
2022/04/15 00:37:23;;;;;;;;;;;8.70;99.90;;;;;;5064212;28;19932;-82
2022/04/15 00:39:49;;;;;;;;;;;8.70;99.90;;;;;;5070784;28;19931;-81
2022/04/15 00:42:16;;;;;;;;;;;8.80;99.90;;;;;;5070795;28;19932;-81
2022/04/15 00:44:42;;;;;;;;;;;8.90;99.90;;;;;;5070152;28;19935;-82
2022/04/15 00:47:09;;;;;;;;;;;8.80;99.90;;;;;;5071298;28;19932;-82
2022/04/15 00:49:35;;;;;;;;;;;8.80;99.90;;;;;;5071343;28;19932;-82
2022/04/15 00:52:02;;;;;;;;;;;8.70;99.90;;;;;;5070267;28;19935;-82
2022/04/15 00:54:29;;;;;;;;;;;8.80;99.90;;;;;;5070997;28;19929;-84
2022/04/15 00:56:56;;;;;;;;;;;8.70;99.90;;;;;;5071782;28;19931;-81
2022/04/15 00:59:22;;;;;;;;;;;8.80;99.90;;;;;;5070810;28;19929;-80
2022/04/15 01:01:49;;;;;;;;;;;9.00;99.90;;;;;;5069680;28;19928;-81
2022/04/15 01:04:15;;;;;;;;;;;9.00;99.90;;;;;;5060561;28;19924;-81
2022/04/15 01:06:42;;;;;;;;;;;9.00;99.90;;;;;;5059732;28;20394;-86
2022/04/15 01:09:08;;;;;;;;;;;8.90;99.90;;;;;;5077417;28;20352;-80
2022/04/15 01:11:35;;;;;;;;;;;8.90;99.90;;;;;;5067666;28;20390;-81
2022/04/15 01:14:02;;;;;;;;;;;8.90;99.90;;;;;;5070356;28;19995;-80
2022/04/15 01:16:29;;;;;;;;;;;8.90;99.90;;;;;;5062797;28;19974;-83
2022/04/15 01:18:55;;;;;;;;;;;8.90;99.90;;;;;;5068264;28;19925;-80
2022/04/15 01:21:22;;;;;;;;;;;9.00;99.90;;;;;;5069659;28;19924;-79
2022/04/15 01:23:50;;;;;;;;;;;8.90;99.90;;;;;;5069418;28;20386;-80
2022/04/15 01:26:16;;;;;;;;;;;8.90;99.90;;;;;;5070589;28;19924;-80
2022/04/15 01:28:43;;;;;;;;;;;8.80;99.90;;;;;;5070597;28;19929;-84
2022/04/15 01:31:09;;;;;;;;;;;8.80;99.90;;;;;;5069635;28;19932;-81
2022/04/15 01:33:36;;;;;;;;;;;9.00;99.90;;;;;;5068701;28;19931;-80
2022/04/15 01:36:02;;;;;;;;;;;8.90;99.90;;;;;;5067832;28;19928;-82
2022/04/15 01:38:29;;;;;;;;;;;8.80;99.90;;;;;;5063635;28;19931;-80
2022/04/15 01:40:56;;;;;;;;;;;9.00;99.90;;;;;;5067757;28;20303;-82
2022/04/15 01:43:23;;;;;;;;;;;9.10;99.90;;;;;;5067884;28;20019;-80
2022/04/15 01:45:49;;;;;;;;;;;9.10;99.90;;;;;;5069447;28;19933;-80
2022/04/15 01:48:16;;;;;;;;;;;9.00;99.90;;;;;;5070516;28;19925;-80
2022/04/15 01:50:42;;;;;;;;;;;8.90;99.90;;;;;;5067146;28;20372;-80
2022/04/15 01:53:09;;;;;;;;;;;9.00;99.90;;;;;;5063970;28;19932;-80
2022/04/15 01:55:35;;;;;;;;;;;8.90;99.90;;;;;;5060613;28;19929;-80
2022/04/15 01:58:02;;;;;;;;;;;8.80;99.90;;;;;;5074849;28;19928;-81
2022/04/15 02:00:28;;;;;;;;;;;8.80;99.90;;;;;;5069584;28;20342;-79
2022/04/15 02:02:55;;;;;;;;;;;9.00;99.90;;;;;;5064194;28;20282;-80
2022/04/15 02:05:21;;;;;;;;;;;9.10;99.90;;;;;;5070386;28;19925;-80
2022/04/15 02:07:48;;;;;;;;;;;8.90;99.90;;;;;;5068982;28;19924;-85
2022/04/15 02:10:14;;;;;;;;;;;8.80;99.90;;;;;;5068247;28;19924;-80
2022/04/15 02:12:41;;;;;;;;;;;8.70;99.90;;;;;;5069361;28;20275;-80
2022/04/15 02:15:07;;;;;;;;;;;9.00;99.90;;;;;;5066343;28;20543;-79
2022/04/15 02:17:34;;;;;;;;;;;9.30;99.90;;;;;;5063495;28;19932;-80
2022/04/15 02:20:00;;;;;;;;;;;9.30;99.90;;;;;;5069357;28;19974;-83
2022/04/15 02:22:27;;;;;;;;;;;9.20;99.90;;;;;;5070807;28;19932;-80
2022/04/15 02:24:54;;;;;;;;;;;9.20;99.90;;;;;;5073717;28;19951;-80
2022/04/15 02:27:20;;;;;;;;;;;9.10;99.90;;;;;;5073402;28;19932;-79
2022/04/15 02:29:47;;;;;;;;;;;9.00;99.90;;;;;;5076032;28;19925;-81
2022/04/15 02:32:13;;;;;;;;;;;9.00;99.90;;;;;;5064398;28;20007;-80
2022/04/15 02:34:40;;;;;;;;;;;9.00;99.90;;;;;;5069296;28;20398;-80
2022/04/15 02:37:06;;;;;;;;;;;8.80;99.90;;;;;;5072540;28;19931;-81
2022/04/15 02:39:33;;;;;;;;;;;8.80;99.90;;;;;;5073949;28;19928;-80
2022/04/15 02:42:00;;;;;;;;;;;8.80;99.90;;;;;;5066685;28;19925;-80
2022/04/15 02:44:26;;;;;;;;;;;8.80;99.90;;;;;;5073543;28;20437;-80
2022/04/15 02:46:54;;;;;;;;;;;8.80;99.90;;;;;;5072533;28;19935;-81
2022/04/15 02:49:20;;;;;;;;;;;8.70;99.90;;;;;;5073056;28;19936;-84
2022/04/15 02:51:47;;;;;;;;;;;8.70;99.90;;;;;;5073381;28;19928;-81
2022/04/15 02:54:13;;;;;;;;;;;8.60;99.90;;;;;;5066135;28;19932;-81
2022/04/15 02:56:40;;;;;;;;;;;8.70;99.90;;;;;;5068675;28;19931;-81
2022/04/15 02:59:07;;;;;;;;;;;8.60;99.90;;;;;;5064043;28;20365;-80
2022/04/15 03:01:33;;;;;;;;;;;8.60;99.90;;;;;;5066288;28;20299;-81
2022/04/15 03:04:00;;;;;;;;;;;8.60;99.90;;;;;;5072366;28;19924;-84
2022/04/15 03:06:26;;;;;;;;;;;8.50;99.90;;;;;;5073448;28;20010;-82
2022/04/15 03:08:55;;;;;;;;;;;8.60;99.90;;;;;;5069170;28;19936;-85
2022/04/15 03:11:21;;;;;;;;;;;8.60;99.90;;;;;;5073027;28;19968;-80
2022/04/15 03:13:48;;;;;;;;;;;8.60;99.90;;;;;;5070490;28;19931;-80
2022/04/15 03:16:14;;;;;;;;;;;8.50;99.90;;;;;;5066602;28;19991;-82
2022/04/15 03:18:41;;;;;;;;;;;8.60;99.90;;;;;;5073361;28;19931;-81
2022/04/15 03:21:08;;;;;;;;;;;8.50;99.90;;;;;;5066737;28;20383;-81
2022/04/15 03:23:34;;;;;;;;;;;8.50;99.90;;;;;;5073129;28;19924;-82
2022/04/15 03:26:01;;;;;;;;;;;8.50;99.90;;;;;;5069345;28;20007;-82
2022/04/15 03:28:28;;;;;;;;;;;8.40;99.90;;;;;;5070256;28;19924;-82
2022/04/15 03:30:54;;;;;;;;;;;8.40;99.90;;;;;;5073071;28;19924;-86
2022/04/15 03:33:21;;;;;;;;;;;8.50;99.90;;;;;;5059503;28;19925;-81
2022/04/15 03:35:47;;;;;;;;;;;8.50;99.90;;;;;;5073465;28;19924;-81
2022/04/15 03:38:14;;;;;;;;;;;8.50;99.90;;;;;;5071981;28;19920;-81
2022/04/15 03:40:40;;;;;;;;;;;8.50;99.90;;;;;;5071346;28;19925;-81
2022/04/15 03:43:07;;;;;;;;;;;8.50;99.90;;;;;;5068601;28;19932;-82
2022/04/15 03:45:33;;;;;;;;;;;8.50;99.90;;;;;;5072362;28;19929;-82
2022/04/15 03:48:00;;;;;;;;;;;8.50;99.90;;;;;;5070557;28;19972;-82
2022/04/15 03:50:26;;;;;;;;;;;8.40;99.90;;;;;;5072281;28;20291;-82
2022/04/15 03:52:53;;;;;;;;;;;8.40;99.90;;;;;;5072783;28;19929;-80
2022/04/15 03:55:19;;;;;;;;;;;8.40;99.90;;;;;;5071774;28;20448;-82
2022/04/15 03:57:46;;;;;;;;;;;8.50;99.90;;;;;;5067317;28;19925;-82
2022/04/15 04:00:13;;;;;;;;;;;8.40;99.90;;;;;;5069980;28;20021;-81
2022/04/15 04:02:39;;;;;;;;;;;8.40;99.90;;;;;;5063359;28;19982;-81
2022/04/15 04:05:08;;;;;;;;;;;8.40;99.90;;;;;;5069177;28;19946;-82
2022/04/15 04:07:34;;;;;;;;;;;8.30;99.90;;;;;;5054610;28;19929;-81
2022/04/15 04:10:01;;;;;;;;;;;8.30;99.90;;;;;;5062795;28;19932;-82
2022/04/15 04:12:27;;;;;;;;;;;8.20;99.90;;;;;;5071933;28;19924;-82
2022/04/15 04:14:55;;;;;;;;;;;8.30;99.90;;;;;;5072183;28;19925;-81
2022/04/15 04:17:21;;;;;;;;;;;8.20;99.90;;;;;;5071457;28;20398;-81
2022/04/15 04:19:48;;;;;;;;;;;8.20;99.90;;;;;;5070051;28;20257;-82
2022/04/15 04:22:14;;;;;;;;;;;8.20;99.90;;;;;;5071115;28;19932;-81
2022/04/15 04:24:41;;;;;;;;;;;8.20;99.90;;;;;;5072010;28;19932;-83
2022/04/15 04:27:08;;;;;;;;;;;8.10;99.90;;;;;;5065659;28;19938;-81
2022/04/15 04:29:34;;;;;;;;;;;8.10;99.90;;;;;;5064906;28;19924;-82
2022/04/15 04:32:01;;;;;;;;;;;8.10;99.90;;;;;;5071870;28;19924;-82
2022/04/15 04:34:27;;;;;;;;;;;8.00;99.90;;;;;;5071388;28;19925;-82
2022/04/15 04:36:54;;;;;;;;;;;8.00;99.90;;;;;;5093389;28;19935;-82
2022/04/15 04:39:23;;;;;;;;;;;8.00;99.90;;;;;;5071118;28;19971;-81
2022/04/15 04:41:51;;;;;;;;;;;7.90;99.90;;;;;;5066696;28;20232;-81
2022/04/15 04:44:18;;;;;;;;;;;7.90;99.90;;;;;;5069688;28;20497;-81
2022/04/15 04:46:44;;;;;;;;;;;7.90;99.90;;;;;;5070716;28;19925;-81
2022/04/15 04:49:11;;;;;;;;;;;7.90;99.90;;;;;;5062686;28;19924;-82
2022/04/15 04:51:37;;;;;;;;;;;7.90;99.90;;;;;;5070764;28;19924;-81
2022/04/15 04:54:04;;;;;;;;;;;7.80;99.90;;;;;;5061111;28;19929;-82
2022/04/15 04:56:30;;;;;;;;;;;7.70;99.90;;;;;;5070378;28;19961;-82
2022/04/15 04:58:57;;;;;;;;;;;7.70;99.90;;;;;;5064370;28;19931;-80
2022/04/15 05:01:23;;;;;;;;;;;7.80;99.90;;;;;;5070415;28;19929;-81
2022/04/15 05:03:50;;;;;;;;;;;7.90;99.90;;;;;;5071291;28;19929;-81
2022/04/15 05:06:16;;;;;;;;;;;7.80;99.90;;;;;;5058925;28;19924;-81
2022/04/15 05:08:43;;;;;;;;;;;7.80;99.90;;;;;;5071228;28;19932;-81
2022/04/15 05:11:09;;;;;;;;;;;7.70;99.90;;;;;;5070169;28;19924;-81
2022/04/15 05:13:36;;;;;;;;;;;7.70;99.90;;;;;;5070862;28;20273;-81
2022/04/15 05:16:03;;;;;;;;;;;7.80;99.90;;;;;;5059223;28;20002;-85
2022/04/15 05:18:29;;;;;;;;;;;7.90;99.90;;;;;;5069204;28;19925;-82
2022/04/15 05:20:56;;;;;;;;;;;7.90;99.90;;;;;;5070857;28;19925;-81
2022/04/15 05:23:22;;;;;;;;;;;7.90;99.90;;;;;;5067733;28;19947;-81
2022/04/15 05:25:49;;;;;;;;;;;7.90;99.90;;;;;;5071996;28;19924;-81
2022/04/15 05:28:15;;;;;;;;;;;8.00;99.90;;;;;;5069260;28;19924;-81
2022/04/15 05:30:42;;;;;;;;;;;8.00;99.90;;;;;;5070652;28;19924;-81
2022/04/15 05:33:08;;;;;;;;;;;8.00;99.90;;;;;;5070296;28;19924;-81
2022/04/15 05:35:35;;;;;;;;;;;8.00;99.90;;;;;;5071909;28;19925;-81
2022/04/15 05:38:01;;;;;;;;;;;8.00;99.90;;;;;;5070539;28;19924;-82
2022/04/15 05:40:28;;;;;;;;;;;8.00;99.90;;;;;;5070304;28;19925;-83
2022/04/15 05:42:55;;;;;;;;;;;8.00;99.90;;;;;;5069068;28;20390;-81
2022/04/15 05:45:21;;;;;;;;;;;8.10;99.90;;;;;;5070186;28;19924;-81
2022/04/15 05:47:48;;;;;;;;;;;8.10;99.90;;;;;;5072869;28;19935;-81
2022/04/15 05:50:14;;;;;;;;;;;8.20;99.90;;;;;;5076603;28;19940;-81
2022/04/15 05:52:41;;;;;;;;;;;8.20;99.90;;;;;;5081131;28;19925;-81
2022/04/15 05:55:07;;;;;;;;;;;8.20;99.90;;;;;;5078605;28;19924;-82
2022/04/15 05:57:34;;;;;;;;;;;8.20;99.90;;;;;;5084133;28;20031;-82
2022/04/15 06:00:00;;;;;;;;;;;8.20;99.90;;;;;;5079521;28;20003;-82
2022/04/15 06:02:27;;;;;;;;;;;8.30;99.90;;;;;;5084262;28;19932;-85
2022/04/15 06:04:54;;;;;;;;;;;8.20;99.90;;;;;;5077582;28;19959;-82
2022/04/15 06:07:20;;;;;;;;;;;8.30;99.90;;;;;;5106039;27;19947;-81
2022/04/15 06:09:47;;;;;;;;;;;8.40;99.90;;;;;;5080762;28;19924;-82
2022/04/15 06:12:13;;;;;;;;;;;8.40;99.90;;;;;;5081335;28;19931;-81
2022/04/15 06:14:40;;;;;;;;;;;8.30;99.90;;;;;;5079788;28;19930;-81
2022/04/15 06:17:06;;;;;;;;;;;8.30;99.90;;;;;;5081661;28;19930;-85
2022/04/15 06:19:33;;;;;;;;;;;8.20;99.90;;;;;;5075670;28;19949;-81
2022/04/15 06:21:59;;;;;;;;;;;8.30;99.90;;;;;;5080145;28;19935;-81
2022/04/15 06:24:26;;;;;;;;;;;8.30;99.90;;;;;;5077821;28;19951;-82
2022/04/15 06:26:52;;;;;;;;;;;8.30;99.90;;;;;;5086821;28;19924;-81
2022/04/15 06:29:19;;;;;;;;;;;8.30;99.90;;;;;;5077688;28;19925;-81
2022/04/15 06:31:46;;;;;;;;;;;8.20;99.90;;;;;;5082155;28;19994;-81
2022/04/15 06:34:13;;;;;;;;;;;8.20;99.90;;;;;;5076178;28;19952;-81
2022/04/15 06:36:40;;;;;;;;;;;8.20;99.90;;;;;;5060557;28;20023;-80
2022/04/15 06:39:06;;;;;;;;;;;8.30;99.90;;;;;;5081711;28;19925;-81
2022/04/15 06:41:34;;;;;;;;;;;8.40;99.90;;;;;;5074623;28;20304;-81
2022/04/15 06:44:00;;;;;;;;;;;8.30;99.90;;;;;;5083818;28;20312;-82
2022/04/15 06:46:27;;;;;;;;;;;8.30;99.90;;;;;;5080586;28;19929;-82
2022/04/15 06:48:53;;;;;;;;;;;8.30;99.90;;;;;;5084716;28;19982;-80
2022/04/15 06:51:20;;;;;;;;;;;8.30;99.90;;;;;;5111384;27;19928;-80
2022/04/15 06:53:47;;;;;;;;;;;8.30;99.90;;;;;;5081232;28;19932;-82
2022/04/15 06:56:14;;;;;;;;;;;8.40;99.90;;;;;;5077847;28;19932;-81
2022/04/15 06:58:42;;;;;;;;;;;8.40;99.90;;;;;;5078429;28;20271;-81
2022/04/15 07:01:08;;;;;;;;;;;8.40;99.90;;;;;;5080719;28;19924;-81
2022/04/15 07:03:35;;;;;;;;;;;8.50;99.90;;;;;;5083244;28;19934;-80
2022/04/15 07:06:02;;;;;;;;;;;8.40;99.90;;;;;;5113095;27;19932;-81
2022/04/15 07:08:28;;;;;;;;;;;8.40;99.90;;;;;;5080575;28;19931;-81
2022/04/15 07:10:55;;;;;;;;;;;8.40;99.90;;;;;;5078370;28;20286;-80
2022/04/15 07:13:21;;;;;;;;;;;8.40;99.90;;;;;;5071977;28;20279;-81
2022/04/15 07:15:50;;;;;;;;;;;8.40;99.90;;;;;;5121629;27;20363;-81
2022/04/15 07:18:17;;;;;;;;;;;8.40;99.90;;;;;;5075095;28;20489;-84
2022/04/15 07:20:43;;;;;;;;;;;8.40;99.90;;;;;;5079608;28;20280;-81
2022/04/15 07:23:10;;;;;;;;;;;8.40;99.90;;;;;;5076629;28;20291;-82
2022/04/15 07:25:36;;;;;;;;;;;8.30;99.90;;;;;;5085601;28;19928;-81
2022/04/15 07:28:03;;;;;;;;;;;8.30;99.90;;;;;;5089025;28;19967;-82
2022/04/15 07:30:29;;;;;;;;;;;8.30;99.90;;;;;;5076112;28;19931;-83
2022/04/15 07:32:56;;;;;;;;;;;8.20;99.90;;;;;;5080224;28;19928;-82
2022/04/15 07:35:23;;;;;;;;;;;8.20;99.90;;;;;;5078415;28;19924;-82
2022/04/15 07:37:49;;;;;;;;;;;8.20;99.90;;;;;;5075133;28;19924;-82
2022/04/15 07:40:16;;;;;;;;;;;8.20;99.90;;;;;;5077692;28;19925;-82
2022/04/15 07:42:42;;;;;;;;;;;8.30;99.90;;;;;;5081115;28;20360;-82
2022/04/15 07:45:09;;;;;;;;;;;8.30;99.90;;;;;;5076231;28;19928;-83
2022/04/15 07:47:35;;;;;;;;;;;8.30;99.90;;;;;;5077801;28;19936;-82
2022/04/15 07:50:02;;;;;;;;;;;8.30;99.90;;;;;;5081534;28;19931;-82
2022/04/15 07:52:29;;;;;;;;;;;8.40;99.90;;;;;;5079405;28;19924;-82
2022/04/15 07:54:55;;;;;;;;;;;8.40;99.90;;;;;;5078073;28;20252;-82
2022/04/15 07:57:26;;;;;;;;;;;8.50;99.90;;;;;;5071706;28;19943;-82
2022/04/15 07:59:53;;;;;;;;;;;8.50;99.90;;;;;;5080022;28;19986;-82
2022/04/15 08:02:19;;;;;;;;;;;8.50;99.90;;;;;;5073638;28;19964;-82
2022/04/15 08:04:46;;;;;;;;;;;8.60;99.90;;;;;;5081202;28;19931;-82
2022/04/15 08:07:12;;;;;;;;;;;8.70;99.90;;;;;;5077173;28;19930;-82
2022/04/15 08:09:39;;;;;;;;;;;8.80;99.90;;;;;;5068512;28;20023;-82
2022/04/15 08:12:08;;;;;;;;;;;8.80;99.90;;;;;;5082219;28;19939;-82
2022/04/15 08:14:35;;;;;;;;;;;9.00;99.90;;;;;;5077120;28;20356;-80
2022/04/15 08:17:01;;;;;;;;;;;9.00;99.90;;;;;;5076951;28;19924;-82
2022/04/15 08:19:28;;;;;;;;;;;9.00;99.90;;;;;;5081082;28;20333;-83
2022/04/15 08:21:55;;;;;;;;;;;9.10;99.90;;;;;;5107349;27;19924;-81
2022/04/15 08:24:21;;;;;;;;;;;9.20;99.90;;;;;;5064047;28;20018;-82
2022/04/15 08:26:49;;;;;;;;;;;9.20;99.90;;;;;;5071898;28;20011;-81
2022/04/15 08:29:16;;;;;;;;;;;9.20;99.90;;;;;;5066302;28;19924;-83
2022/04/15 08:31:42;;;;;;;;;;;9.30;99.90;;;;;;5069965;28;20022;-83
2022/04/15 08:34:09;;;;;;;;;;;9.30;99.90;;;;;;5071836;28;19924;-81
2022/04/15 08:36:36;;;;;;;;;;;9.40;99.90;;;;;;5071296;28;19950;-81
2022/04/15 08:39:02;;;;;;;;;;;9.40;99.90;;;;;;5072362;28;19931;-82
2022/04/15 08:41:29;;;;;;;;;;;9.50;99.90;;;;;;5070585;28;19932;-82
2022/04/15 08:43:55;;;;;;;;;;;9.50;99.90;;;;;;5071604;28;19935;-81
2022/04/15 08:46:23;;;;;;;;;;;9.50;99.90;;;;;;5060918;28;19932;-82
2022/04/15 08:48:50;;;;;;;;;;;9.60;99.90;;;;;;5105494;28;19928;-81
2022/04/15 08:51:16;;;;;;;;;;;9.60;99.90;;;;;;5071038;28;19924;-80
2022/04/15 08:53:43;;;;;;;;;;;9.60;99.90;;;;;;5071023;28;19924;-82
2022/04/15 08:56:09;;;;;;;;;;;9.70;99.90;;;;;;5064616;28;19924;-82
2022/04/15 08:58:36;;;;;;;;;;;9.70;99.90;;;;;;5074937;28;19975;-83
2022/04/15 09:01:03;;;;;;;;;;;9.70;99.90;;;;;;5059910;28;19931;-83
2022/04/15 09:03:29;;;;;;;;;;;9.80;99.90;;;;;;5068910;28;19925;-83
2022/04/15 09:05:56;;;;;;;;;;;9.80;99.90;;;;;;5075720;28;19928;-83
2022/04/15 09:08:24;;;;;;;;;;;9.80;99.90;;;;;;5074928;28;19928;-88
2022/04/15 09:10:50;;;;;;;;;;;9.90;99.90;;;;;;5083949;28;19924;-83
2022/04/15 09:13:17;;;;;;;;;;;9.80;99.90;;;;;;5070997;28;19925;-82
2022/04/15 09:15:43;;;;;;;;;;;9.90;99.90;;;;;;5070490;28;19929;-81
2022/04/15 09:18:10;;;;;;;;;;;9.90;99.90;;;;;;5074522;28;19925;-82
2022/04/15 09:20:36;;;;;;;;;;;9.80;99.90;;;;;;5064185;28;19925;-83
2022/04/15 09:23:03;;;;;;;;;;;9.80;99.90;;;;;;5071363;28;19930;-83
2022/04/15 09:25:30;;;;;;;;;;;9.80;99.90;;;;;;5064759;28;19925;-83
2022/04/15 09:27:56;;;;;;;;;;;9.80;99.90;;;;;;5068399;28;19928;-84
2022/04/15 09:30:23;;;;;;;;;;;9.90;99.90;;;;;;5065114;28;20413;-88
2022/04/15 09:32:50;;;;;;;;;;;9.90;99.90;;;;;;5067241;28;19929;-84
2022/04/15 09:35:16;;;;;;;;;;;9.90;99.90;;;;;;5055670;28;19931;-83
2022/04/15 09:37:43;;;;;;;;;;;9.90;99.90;;;;;;5063576;28;19928;-83
2022/04/15 09:40:10;;;;;;;;;;;9.90;99.90;;;;;;5065645;28;19940;-83
2022/04/15 09:42:36;;;;;;;;;;;10.00;99.90;;;;;;5076684;28;19929;-83
2022/04/15 09:45:03;;;;;;;;;;;9.90;99.90;;;;;;5066893;28;20323;-83
2022/04/15 09:47:30;;;;;;;;;;;9.90;99.90;;;;;;5074203;28;19952;-83
2022/04/15 09:49:56;;;;;;;;;;;9.90;99.90;;;;;;5063127;28;19925;-83
2022/04/15 09:52:23;;;;;;;;;;;9.90;99.90;;;;;;5057709;28;19936;-84
2022/04/15 09:54:49;;;;;;;;;;;9.80;99.90;;;;;;5066754;28;19928;-85
2022/04/15 09:57:16;;;;;;;;;;;9.90;99.90;;;;;;5089326;28;19937;-83
2022/04/15 09:59:44;;;;;;;;;;;9.80;99.90;;;;;;5055709;28;19928;-82
2022/04/15 10:02:11;;;;;;;;;;;9.70;99.90;;;;;;5070813;28;20006;-83
2022/04/15 10:04:38;;;;;;;;;;;9.60;99.90;;;;;;5075822;28;20015;-82
2022/04/15 10:07:07;;;;;;;;;;;9.60;99.90;;;;;;5070204;28;19924;-86
2022/04/15 10:09:33;;;;;;;;;;;9.60;99.90;;;;;;5104415;28;20413;-83
2022/04/15 10:12:01;;;;;;;;;;;9.60;99.90;;;;;;5071278;28;19932;-81
2022/04/15 10:14:28;;;;;;;;;;;9.60;99.90;;;;;;5070258;28;20449;-87
2022/04/15 10:16:55;;;;;;;;;;;9.50;99.90;;;;;;5071309;28;19925;-81
2022/04/15 10:19:21;;;;;;;;;;;9.60;99.90;;;;;;5070857;28;19932;-82
2022/04/15 10:21:48;;;;;;;;;;;9.60;99.90;;;;;;5071891;28;19920;-83
2022/04/15 10:24:15;;;;;;;;;;;9.60;99.90;;;;;;5077021;28;19925;-81
2022/04/15 10:26:41;;;;;;;;;;;9.60;99.90;;;;;;5072509;28;19932;-83
2022/04/15 10:29:09;;;;;;;;;;;9.60;99.90;;;;;;5074275;28;19930;-80
2022/04/15 10:31:36;;;;;;;;;;;9.60;99.90;;;;;;5068386;28;19994;-80
2022/04/15 10:34:03;;;;;;;;;;;9.50;99.90;;;;;;5072801;28;19931;-83
2022/04/15 10:36:30;;;;;;;;;;;9.60;99.90;;;;;;5069047;28;19924;-86
2022/04/15 10:38:57;;;;;;;;;;;9.60;99.90;;;;;;5069962;28;19936;-81
2022/04/15 10:41:23;;;;;;;;;;;9.60;99.90;;;;;;5076093;28;19925;-82
2022/04/15 10:43:50;;;;;;;;;;;9.60;99.90;;;;;;5095309;28;20113;-83
2022/04/15 10:46:16;;;;;;;;;;;9.50;99.90;;;;;;5106857;28;20449;-82
2022/04/15 10:48:43;;;;;;;;;;;9.40;99.90;;;;;;5068065;28;19931;-82
2022/04/15 10:51:10;;;;;;;;;;;9.50;99.90;;;;;;5069768;28;19932;-81
2022/04/15 10:53:36;;;;;;;;;;;9.50;99.90;;;;;;5070533;28;19928;-81
2022/04/15 10:56:03;;;;;;;;;;;9.50;99.90;;;;;;5080576;28;20304;-81
2022/04/15 10:58:29;;;;;;;;;;;9.60;99.90;;;;;;5074545;28;19924;-85
2022/04/15 11:01:13;;;;;;;;;;;9.60;99.90;;;;;;5072745;28;19928;-82
2022/04/15 11:03:41;;;;;;;;;;;9.60;99.90;;;;;;5067500;28;20019;-82
2022/04/15 11:06:09;;;;;;;;;;;9.60;99.90;;;;;;5064991;28;19970;-83
2022/04/15 11:08:36;;;;;;;;;;;9.60;99.90;;;;;;5072131;28;19969;-82
2022/04/15 11:11:03;;;;;;;;;;;9.60;99.90;;;;;;5071249;28;19924;-82
2022/04/15 11:13:30;;;;;;;;;;;9.50;99.90;;;;;;5073686;28;19946;-82
2022/04/15 11:15:57;;;;;;;;;;;9.40;99.90;;;;;;5066384;28;19975;-81
2022/04/15 11:18:23;;;;;;;;;;;9.40;99.90;;;;;;5072304;28;20407;-82
2022/04/15 11:20:50;;;;;;;;;;;9.50;99.90;;;;;;5073144;28;19959;-83
2022/04/15 11:23:17;;;;;;;;;;;9.50;99.90;;;;;;5073049;28;19942;-83
2022/04/15 11:25:43;;;;;;;;;;;9.40;99.90;;;;;;5093427;27;20278;-82
2022/04/15 11:28:10;;;;;;;;;;;9.60;99.90;;;;;;5064235;28;19935;-81
2022/04/15 11:30:37;;;;;;;;;;;9.60;99.90;;;;;;5055689;28;19929;-84
2022/04/15 11:33:04;;;;;;;;;;;9.50;99.90;;;;;;5064605;28;19935;-83
2022/04/15 11:35:31;;;;;;;;;;;9.60;99.90;;;;;;5056864;28;19960;-84
2022/04/15 11:37:57;;;;;;;;;;;9.60;99.90;;;;;;5069507;28;19955;-83
2022/04/15 11:40:24;;;;;;;;;;;9.70;99.90;;;;;;5066544;28;19929;-83
2022/04/15 11:42:50;;;;;;;;;;;9.70;99.90;;;;;;5067936;28;19928;-85
2022/04/15 11:45:17;;;;;;;;;;;9.70;99.90;;;;;;5065038;28;20443;-81
2022/04/15 11:47:44;;;;;;;;;;;9.60;99.90;;;;;;5065179;28;19925;-81
2022/04/15 11:50:10;;;;;;;;;;;9.60;99.90;;;;;;5061503;28;19925;-81
2022/04/15 11:52:37;;;;;;;;;;;9.70;99.90;;;;;;5068258;28;19935;-87
2022/04/15 11:55:04;;;;;;;;;;;9.70;99.90;;;;;;5068324;28;19952;-82
2022/04/15 11:57:30;;;;;;;;;;;9.70;99.90;;;;;;5069875;28;20450;-85
2022/04/15 11:59:57;;;;;;;;;;;9.80;99.90;;;;;;5072583;28;20007;-82
2022/04/15 12:02:25;;;;;;;;;;;9.70;99.90;;;;;;5066624;28;19924;-82
2022/04/15 12:04:51;;;;;;;;;;;9.70;99.90;;;;;;5072541;28;20015;-86
2022/04/15 12:07:19;;;;;;;;;;;9.80;99.90;;;;;;5063240;28;19925;-81
2022/04/15 12:09:46;;;;;;;;;;;9.80;99.90;;;;;;5071177;28;19986;-83
2022/04/15 12:12:12;;;;;;;;;;;9.80;99.90;;;;;;5060849;28;20276;-81
2022/04/15 12:14:39;;;;;;;;;;;9.80;99.90;;;;;;5063683;28;20367;-87
2022/04/15 12:17:07;;;;;;;;;;;9.80;99.90;;;;;;5060814;28;19925;-80
2022/04/15 12:19:33;;;;;;;;;;;9.70;99.90;;;;;;5073644;28;19924;-81
2022/04/15 12:22:00;;;;;;;;;;;9.70;99.90;;;;;;5070800;28;19943;-85
2022/04/15 12:24:30;;;;;;;;;;;9.60;99.90;;;;;;5075126;28;20360;-81
2022/04/15 12:26:59;;;;;;;;;;;9.70;99.90;;;;;;5079009;28;20338;-82
2022/04/15 12:32:10;;;;;;;;;;;9.70;99.90;;;;;;5076835;28;20368;-82
2022/04/15 12:34:37;;;;;;;;;;;9.70;99.90;;;;;;5084083;28;20036;-81
2022/04/15 12:37:03;;;;;;;;;;;9.70;99.90;;;;;;5076039;28;19931;-82
2022/04/15 12:39:30;;;;;;;;;;;9.70;99.90;;;;;;5080118;28;19947;-82
2022/04/15 12:41:57;;;;;;;;;;;9.80;99.90;;;;;;5064412;28;19947;-82
2022/04/15 12:44:27;;;;;;;;;;;9.80;99.90;;;;;;5080845;28;19970;-81
2022/04/15 12:46:54;;;;;;;;;;;9.80;99.90;;;;;;5068042;28;19939;-81
2022/04/15 12:49:20;;;;;;;;;;;9.80;99.90;;;;;;5077255;28;19925;-82
2022/04/15 12:51:47;;;;;;;;;;;9.80;99.90;;;;;;5063887;28;19925;-82
2022/04/15 12:54:13;;;;;;;;;;;9.70;99.90;;;;;;5069965;28;19931;-82
2022/04/15 12:56:40;;;;;;;;;;;9.70;99.90;;;;;;5077607;28;19924;-85
2022/04/15 12:59:06;;;;;;;;;;;9.60;99.90;;;;;;5072002;28;19928;-81
2022/04/15 13:01:33;;;;;;;;;;;9.70;99.90;;;;;;5070839;28;19924;-80
2022/04/15 13:04:00;;;;;;;;;;;9.80;99.90;;;;;;5070391;28;19978;-86
2022/04/15 13:06:26;;;;;;;;;;;9.80;99.90;;;;;;5067873;28;19924;-81
2022/04/15 13:08:53;;;;;;;;;;;9.80;99.90;;;;;;5068564;28;19925;-85
2022/04/15 13:11:19;;;;;;;;;;;9.80;99.90;;;;;;5070987;28;19925;-85
2022/04/15 13:13:46;;;;;;;;;;;9.80;99.90;;;;;;5069891;28;19925;-85
2022/04/15 13:16:12;;;;;;;;;;;9.80;99.90;;;;;;5071150;28;19924;-86
2022/04/15 13:18:41;;;;;;;;;;;9.80;99.90;;;;;;5068340;28;19925;-84
2022/04/15 13:21:07;;;;;;;;;;;9.80;99.90;;;;;;5070630;28;20402;-84
2022/04/15 13:23:34;;;;;;;;;;;9.80;99.90;;;;;;5060001;28;19929;-85
2022/04/15 13:26:01;;;;;;;;;;;9.80;99.90;;;;;;5064870;28;19939;-84
2022/04/15 13:28:28;;;;;;;;;;;9.80;99.90;;;;;;5074204;28;19935;-84
2022/04/15 13:30:54;;;;;;;;;;;9.90;99.90;;;;;;5067697;28;19925;-84
2022/04/15 13:33:21;;;;;;;;;;;9.80;99.90;;;;;;5069649;28;19925;-85
2022/04/15 13:35:47;;;;;;;;;;;9.80;99.90;;;;;;5070367;28;20166;-84
2022/04/15 13:38:14;;;;;;;;;;;9.80;99.90;;;;;;5072827;28;19986;-84
2022/04/15 13:40:41;;;;;;;;;;;9.70;99.90;;;;;;5072970;28;19932;-83
2022/04/15 13:43:08;;;;;;;;;;;9.60;99.90;;;;;;5075348;28;20007;-84
2022/04/15 13:45:34;;;;;;;;;;;9.70;99.90;;;;;;5076450;28;19924;-84
2022/04/15 13:48:01;;;;;;;;;;;9.60;99.90;;;;;;5069707;28;19925;-84
2022/04/15 13:50:28;;;;;;;;;;;9.60;99.90;;;;;;5065174;28;19928;-84
2022/04/15 13:58:23;;;;;;;;;;;9.70;99.90;;;;;;5100243;28;19924;-84
2022/04/15 14:00:49;;;;;;;;;;;9.70;99.90;;;;;;5069082;28;20398;-84
2022/04/15 14:03:16;;;;;;;;;;;9.70;99.90;;;;;;5070148;28;19928;-84
2022/04/15 14:05:42;;;;;;;;;;;9.70;99.90;;;;;;5104402;28;20359;-83
2022/04/15 14:08:09;;;;;;;;;;;9.60;99.90;;;;;;5069519;28;19928;-82
2022/04/15 14:10:37;;;;;;;;;;;9.70;99.90;;;;;;5069749;28;20292;-83
2022/04/15 14:13:04;;;;;;;;;;;9.70;99.90;;;;;;5069652;28;19925;-84
2022/04/15 14:15:30;;;;;;;;;;;9.60;99.90;;;;;;5068247;28;19924;-85
2022/04/15 14:17:59;;;;;;;;;;;9.60;99.90;;;;;;5057962;28;19924;-84
2022/04/15 14:20:26;;;;;;;;;;;9.60;99.90;;;;;;5068154;28;20410;-85
2022/04/15 14:22:52;;;;;;;;;;;9.60;99.90;;;;;;5082141;28;19927;-87
2022/04/15 14:25:19;;;;;;;;;;;9.50;99.90;;;;;;5070687;28;19928;-85
2022/04/15 14:27:46;;;;;;;;;;;9.50;99.90;;;;;;5074147;28;19924;-84
2022/04/15 14:30:12;;;;;;;;;;;9.60;99.90;;;;;;5072324;28;19928;-84
2022/04/15 14:32:39;;;;;;;;;;;9.60;99.90;;;;;;5073794;28;20406;-85
2022/04/15 14:35:05;;;;;;;;;;;9.40;99.90;;;;;;5070943;28;20563;-83